Time;durP1;ratioP1;P1;durP2;ratioP2;P2;SDS_P1;SDS_P2;PMS_P1;PMS_P2;Temp;Humidity;BMP_temperature;BMP_pressure;BME280_temperature;BME280_humidity;BME280_pressure;Samples;Min_cycle;Max_cycle;Signal;HPM_P1;HPM_P2
2021/11/28 00:01:55;;;;;;;;;13.00;10.75;;;;;19.59;46.66;98881.03;4950622;28;45492;-80
2021/11/28 00:04:31;;;;;;;;;13.00;12.00;;;;;19.60;46.72;98882.72;4962425;28;47295;-80
2021/11/28 00:07:03;;;;;;;;;19.00;16.75;;;;;19.60;46.60;98881.88;4963334;28;45622;-80
2021/11/28 00:09:46;;;;;;;;;15.75;14.00;;;;;19.62;46.23;98891.44;4962327;28;45403;-80
2021/11/28 00:14:54;;;;;;;;;18.25;14.00;;;;;19.60;46.73;98892.47;4965778;28;45242;-80
2021/11/28 00:17:19;;;;;;;;;30.25;23.25;;;;;19.57;46.09;98888.22;4949726;28;45811;-80
2021/11/28 00:19:45;;;;;;;;;18.25;17.00;;;;;19.51;46.24;98883.22;4965035;28;45978;-80
2021/11/28 00:22:11;;;;;;;;;39.75;33.50;;;;;19.47;46.31;98892.28;4965160;28;45294;-80
2021/11/28 00:24:37;;;;;;;;;17.75;15.50;;;;;19.50;46.33;98894.75;4964002;28;70074;-79
2021/11/28 00:27:03;;;;;;;;;22.50;17.50;;;;;19.49;46.24;98896.56;4965664;28;45172;-79
2021/11/28 00:29:29;;;;;;;;;23.00;20.25;;;;;19.49;46.60;98890.41;4948764;28;45323;-79
2021/11/28 00:31:55;;;;;;;;;22.00;16.25;;;;;19.43;46.43;98882.81;4949152;28;45297;-79
2021/11/28 00:34:22;;;;;;;;;26.00;22.25;;;;;19.51;46.58;98893.81;4949746;28;47183;-79
2021/11/28 00:36:47;;;;;;;;;20.25;17.75;;;;;19.49;46.06;98901.00;4948844;28;45417;-79
2021/11/28 00:39:16;;;;;;;;;15.00;12.75;;;;;19.51;46.96;98885.03;4964815;28;45373;-80
2021/11/28 00:41:41;;;;;;;;;14.50;12.75;;;;;19.45;46.49;98883.56;4967152;28;45480;-78
2021/11/28 00:44:07;;;;;;;;;16.75;14.50;;;;;19.45;46.50;98878.28;4951696;28;47319;-80
2021/11/28 00:46:33;;;;;;;;;19.25;15.25;;;;;19.46;46.32;98885.28;4964879;28;45374;-80
2021/11/28 00:49:15;;;;;;;;;16.00;15.50;;;;;19.37;47.05;98883.16;4964736;28;45370;-80
2021/11/28 00:54:38;;;;;;;;;14.75;12.50;;;;;19.41;46.21;98904.06;4947564;28;46139;-80
2021/11/28 00:57:03;;;;;;;;;17.50;16.50;;;;;19.43;46.95;98917.19;4981191;28;64181;-81
2021/11/28 00:59:29;;;;;;;;;14.50;13.25;;;;;19.43;46.49;98909.25;4948666;28;45311;-80
2021/11/28 01:01:54;;;;;;;;;19.00;17.00;;;;;19.39;46.43;98902.44;4963385;28;45309;-80
2021/11/28 01:04:22;;;;;;;;;13.25;12.50;;;;;19.38;45.80;98911.34;4964478;28;46444;-81
2021/11/28 01:07:14;;;;;;;;;15.75;14.00;;;;;19.42;46.22;98918.16;4964725;28;45285;-80
2021/11/28 01:09:39;;;;;;;;;17.00;15.75;;;;;19.40;46.07;98914.75;4964649;28;45266;-79
2021/11/28 01:12:06;;;;;;;;;15.75;13.00;;;;;19.43;46.33;98925.13;4947934;28;45692;-80
2021/11/28 01:14:31;;;;;;;;;14.50;13.50;;;;;19.44;46.02;98919.75;4947933;28;47187;-80
2021/11/28 01:17:00;;;;;;;;;17.50;14.75;;;;;19.44;46.29;98922.41;4964255;28;45369;-80
2021/11/28 01:19:25;;;;;;;;;19.25;14.25;;;;;19.45;45.75;98926.75;4948624;28;45311;-81
2021/11/28 01:21:55;;;;;;;;;13.75;12.25;;;;;19.45;46.15;98928.53;4963483;28;63420;-80
2021/11/28 01:24:21;;;;;;;;;13.75;12.75;;;;;19.44;46.09;98925.03;4964059;28;46386;-81
2021/11/28 01:26:46;;;;;;;;;18.50;13.50;;;;;19.43;46.48;98920.69;4964066;28;45429;-80
2021/11/28 01:29:12;;;;;;;;;14.75;13.75;;;;;19.45;46.78;98931.19;4963705;28;57089;-80
2021/11/28 01:31:40;;;;;;;;;13.00;13.00;;;;;19.47;46.14;98934.63;4964210;28;45422;-80
2021/11/28 01:34:06;;;;;;;;;15.75;13.50;;;;;19.45;46.39;98942.63;4947751;28;48238;-80
2021/11/28 01:36:31;;;;;;;;;16.75;14.25;;;;;19.47;46.52;98947.84;4964087;28;45182;-80
2021/11/28 01:38:57;;;;;;;;;14.50;13.75;;;;;19.47;46.56;98946.06;4963415;28;58306;-80
2021/11/28 01:41:22;;;;;;;;;19.50;18.00;;;;;19.43;46.75;98935.72;4934841;28;45305;-80
2021/11/28 01:43:51;;;;;;;;;15.50;13.00;;;;;19.44;47.27;98940.06;4919135;28;62894;-80
2021/11/28 01:46:20;;;;;;;;;15.75;9.25;;;;;19.44;46.06;98948.00;4964131;28;45449;-80
2021/11/28 01:48:46;;;;;;;;;18.25;15.75;;;;;19.45;46.17;98952.34;4964291;28;45280;-80
2021/11/28 01:51:11;;;;;;;;;17.25;15.00;;;;;19.42;47.12;98957.81;4934482;28;53710;-80
2021/11/28 01:53:36;;;;;;;;;13.75;13.75;;;;;19.43;46.52;98956.88;4963337;28;51856;-80
2021/11/28 01:56:02;;;;;;;;;17.50;13.25;;;;;19.43;46.59;98959.53;4947198;28;52997;-80
2021/11/28 01:58:28;;;;;;;;;16.25;13.50;;;;;19.44;46.63;98971.81;4980048;28;45366;-80
2021/11/28 02:00:58;;;;;;;;;15.75;14.50;;;;;19.42;46.40;98961.31;4981204;28;45211;-80
2021/11/28 02:03:24;;;;;;;;;12.50;11.25;;;;;19.45;46.51;98973.53;4963859;28;46262;-80
2021/11/28 02:05:51;;;;;;;;;12.25;12.00;;;;;19.44;46.78;98961.22;4981188;28;45393;-80
2021/11/28 02:08:16;;;;;;;;;17.25;15.00;;;;;19.44;46.26;98971.81;4963423;28;45216;-80
2021/11/28 02:10:42;;;;;;;;;13.00;10.00;;;;;19.39;46.38;98968.59;4980550;28;51038;-80
2021/11/28 02:13:07;;;;;;;;;15.00;13.75;;;;;19.43;46.27;98980.69;4963245;28;46142;-80
2021/11/28 02:15:33;;;;;;;;;14.50;13.00;;;;;19.42;46.37;98974.56;4931044;28;49634;-80
2021/11/28 02:17:58;;;;;;;;;16.00;12.75;;;;;19.44;45.93;98987.69;4947275;28;45785;-80
2021/11/28 02:20:26;;;;;;;;;13.00;13.00;;;;;19.42;45.89;98984.28;4951923;28;45374;-80
2021/11/28 02:22:52;;;;;;;;;15.25;12.00;;;;;19.42;46.06;98985.13;4958091;28;46057;-80
2021/11/28 02:25:18;;;;;;;;;13.50;10.75;;;;;19.42;45.59;98985.13;4963375;28;45359;-79
2021/11/28 02:27:43;;;;;;;;;15.00;11.25;;;;;19.42;46.04;98992.22;4963240;28;45334;-79
2021/11/28 02:30:09;;;;;;;;;13.25;12.25;;;;;19.42;46.26;98994.88;4947425;28;45463;-80
2021/11/28 02:32:34;;;;;;;;;16.75;13.75;;;;;19.43;46.01;98992.13;4963078;28;45784;-80
2021/11/28 02:35:00;;;;;;;;;15.00;14.50;;;;;19.44;45.66;98992.97;4947208;28;45332;-80
2021/11/28 02:37:25;;;;;;;;;14.00;12.25;;;;;19.43;46.22;98997.41;4963593;28;45461;-80
2021/11/28 02:39:52;;;;;;;;;14.75;10.25;;;;;19.40;45.91;98983.53;4980533;28;45554;-80
2021/11/28 02:42:21;;;;;;;;;15.50;14.75;;;;;19.43;45.96;98997.41;4978990;28;45398;-80
2021/11/28 02:44:46;;;;;;;;;14.50;11.25;;;;;19.42;46.13;98993.06;4962529;28;45426;-79
2021/11/28 02:47:12;;;;;;;;;16.25;12.50;;;;;19.40;46.05;98994.09;4963053;28;45416;-80
2021/11/28 02:49:37;;;;;;;;;12.50;12.50;;;;;19.37;45.86;98983.66;4978878;28;60351;-81
2021/11/28 02:52:03;;;;;;;;;13.25;13.25;;;;;19.40;46.05;98994.94;4962911;28;46170;-80
2021/11/28 02:54:31;;;;;;;;;11.00;10.50;;;;;19.40;46.17;98997.59;4962728;28;45341;-80
2021/11/28 02:56:57;;;;;;;;;11.25;9.75;;;;;19.37;46.28;98987.19;4979622;28;63450;-80
2021/11/28 02:59:22;;;;;;;;;12.25;10.25;;;;;19.37;45.54;98989.84;4980634;28;45274;-80
2021/11/28 03:01:48;;;;;;;;;12.75;11.25;;;;;19.35;46.45;98994.34;4980218;28;45493;-80
2021/11/28 03:04:13;;;;;;;;;11.00;8.75;;;;;19.34;46.08;98994.44;4979385;28;45434;-81
2021/11/28 03:06:38;;;;;;;;;10.25;8.25;;;;;19.32;46.10;98996.31;4978806;28;50882;-80
2021/11/28 03:09:04;;;;;;;;;12.50;12.50;;;;;19.32;45.99;98985.72;4962750;28;45271;-81
2021/11/28 03:11:30;;;;;;;;;12.25;12.25;;;;;19.35;46.54;99004.91;4962499;28;46057;-80
2021/11/28 03:13:55;;;;;;;;;17.00;12.25;;;;;19.35;46.14;99004.06;4962774;28;45250;-80
2021/11/28 03:16:22;;;;;;;;;11.25;10.50;;;;;19.35;46.97;99017.28;4962594;28;46052;-80
2021/11/28 03:18:48;;;;;;;;;10.50;10.25;;;;;19.35;46.62;99006.72;4963056;28;45322;-80
2021/11/28 03:21:16;;;;;;;;;11.75;10.00;;;;;19.35;46.39;99010.22;4962209;28;47578;-81
2021/11/28 03:23:43;;;;;;;;;18.50;13.00;;;;;19.35;46.52;99019.94;4962396;28;45332;-80
2021/11/28 03:26:21;;;;;;;;;12.50;11.75;;;;;19.32;46.58;99009.53;4965875;28;45303;-80
2021/11/28 03:28:51;;;;;;;;;10.50;8.50;;;;;19.36;45.77;99005.78;4949810;28;45456;-80
2021/11/28 03:31:16;;;;;;;;;10.25;9.25;;;;;19.37;46.17;99013.66;4965705;28;47735;-80
2021/11/28 03:33:42;;;;;;;;;13.25;12.50;;;;;19.37;46.01;99004.84;4965904;28;45237;-81
2021/11/28 03:36:10;;;;;;;;;11.25;8.25;;;;;19.40;45.62;99007.34;4948960;28;64165;-81
2021/11/28 03:38:37;;;;;;;;;10.25;9.00;;;;;19.38;45.80;99011.84;4965836;28;45363;-80
2021/11/28 03:41:03;;;;;;;;;12.75;10.75;;;;;19.39;45.40;99018.84;4965667;28;46176;-80
2021/11/28 03:43:29;;;;;;;;;12.50;11.75;;;;;19.38;45.25;99025.09;4973420;28;46068;-80
2021/11/28 03:45:54;;;;;;;;;12.50;10.75;;;;;19.35;45.56;99022.59;4965797;28;45454;-80
2021/11/28 03:48:19;;;;;;;;;8.25;7.00;;;;;19.35;45.56;99018.16;4981982;28;47064;-83
2021/11/28 03:50:45;;;;;;;;;10.00;8.00;;;;;19.31;45.54;99023.69;4982634;28;57811;-81
2021/11/28 03:53:11;;;;;;;;;10.25;9.50;;;;;19.38;46.27;99025.94;4983347;28;45380;-81
2021/11/28 03:55:36;;;;;;;;;12.50;8.50;;;;;19.39;44.92;99025.00;4965555;28;45231;-80
2021/11/28 03:58:03;;;;;;;;;8.00;8.00;;;;;19.38;45.92;99023.28;4981862;28;45555;-81
2021/11/28 04:00:28;;;;;;;;;9.00;9.00;;;;;19.38;45.49;99030.38;4982973;28;45353;-81
2021/11/28 04:02:54;;;;;;;;;9.00;7.50;;;;;19.37;45.37;99033.94;4965185;28;60661;-81
2021/11/28 04:05:22;;;;;;;;;9.00;7.25;;;;;19.34;45.06;99032.31;4965671;28;45199;-81
2021/11/28 04:07:48;;;;;;;;;10.75;10.25;;;;;19.33;45.21;99042.97;4981722;28;45461;-81
2021/11/28 04:10:13;;;;;;;;;7.75;7.75;;;;;19.33;45.89;99037.69;4965085;28;48099;-81
2021/11/28 04:12:39;;;;;;;;;10.00;6.75;;;;;19.32;45.84;99038.63;4965428;28;45325;-81
2021/11/28 04:15:05;;;;;;;;;11.00;8.25;;;;;19.31;45.53;99036.94;4965146;28;45274;-81
2021/11/28 04:17:30;;;;;;;;;6.50;6.00;;;;;19.32;45.52;99039.50;4949142;28;45907;-81
2021/11/28 04:19:56;;;;;;;;;8.25;6.00;;;;;19.31;46.02;99043.06;4948934;28;47193;-81
2021/11/28 04:22:21;;;;;;;;;9.25;8.75;;;;;19.33;45.84;99048.28;4983045;28;45251;-81
2021/11/28 04:24:47;;;;;;;;;11.50;9.75;;;;;19.30;45.31;99048.44;4983404;28;45445;-81
2021/11/28 04:27:12;;;;;;;;;6.25;6.25;;;;;19.27;45.44;99041.50;4969280;28;45314;-81
2021/11/28 04:29:38;;;;;;;;;5.50;5.00;;;;;19.25;45.32;99032.81;4969145;28;45343;-81
2021/11/28 04:32:04;;;;;;;;;12.00;9.50;;;;;19.26;46.26;99039.81;4968760;28;55294;-81
2021/11/28 04:34:29;;;;;;;;;8.00;7.25;;;;;19.29;45.63;99044.09;4949965;28;45294;-82
2021/11/28 04:36:54;;;;;;;;;7.75;7.00;;;;;19.27;45.91;99038.00;4965131;28;45567;-82
2021/11/28 04:39:20;;;;;;;;;7.00;7.00;;;;;19.29;45.76;99044.09;4948607;28;47178;-82
2021/11/28 04:41:47;;;;;;;;;6.75;6.75;;;;;19.29;45.34;99044.09;4948092;28;65552;-83
2021/11/28 04:44:12;;;;;;;;;7.00;6.00;;;;;19.28;45.20;99045.84;4965391;28;45357;-82
2021/11/28 04:46:38;;;;;;;;;8.25;7.75;;;;;19.27;46.13;99043.31;4948667;28;52622;-82
2021/11/28 04:49:03;;;;;;;;;5.50;5.50;;;;;19.28;45.72;99051.16;4948198;28;50795;-82
2021/11/28 04:51:29;;;;;;;;;8.00;7.00;;;;;19.31;45.89;99044.88;4964942;28;45394;-82
2021/11/28 04:53:55;;;;;;;;;6.00;5.75;;;;;19.34;46.08;99048.19;4948905;28;45374;-82
2021/11/28 04:56:20;;;;;;;;;3.50;3.50;;;;;19.34;45.25;99040.25;4948535;28;45513;-82
2021/11/28 04:58:45;;;;;;;;;7.00;5.50;;;;;19.32;45.12;99042.13;4948412;28;47025;-82
2021/11/28 05:01:11;;;;;;;;;5.50;5.25;;;;;19.32;45.18;99041.28;4981746;28;55491;-82
2021/11/28 05:03:36;;;;;;;;;6.00;6.00;;;;;19.31;45.17;99045.72;4980867;28;45284;-82
2021/11/28 05:06:02;;;;;;;;;5.75;5.00;;;;;19.33;45.14;99049.13;4947823;28;65073;-82
2021/11/28 05:08:27;;;;;;;;;6.75;6.50;;;;;19.29;45.09;99046.75;4947579;28;57947;-82
2021/11/28 05:10:52;;;;;;;;;4.25;3.75;;;;;19.29;44.96;99046.75;4948270;28;45329;-81
2021/11/28 05:13:18;;;;;;;;;6.00;6.00;;;;;19.28;45.41;99055.59;4964183;28;47750;-82
2021/11/28 05:15:43;;;;;;;;;6.75;5.00;;;;;19.27;45.49;99057.38;4948463;28;45507;-82
2021/11/28 05:18:09;;;;;;;;;6.50;6.50;;;;;19.23;44.89;99052.34;4982013;28;45307;-81
2021/11/28 05:20:35;;;;;;;;;5.25;5.25;;;;;19.20;45.51;99056.88;4964335;28;45219;-81
2021/11/28 05:23:03;;;;;;;;;5.50;5.00;;;;;19.22;45.05;99064.72;4964107;28;49451;-81
2021/11/28 05:25:28;;;;;;;;;7.00;6.50;;;;;19.22;45.79;99055.94;4964433;28;46397;-81
2021/11/28 05:27:54;;;;;;;;;5.50;5.50;;;;;19.23;45.45;99065.56;4963752;28;48461;-81
2021/11/28 05:30:19;;;;;;;;;5.25;5.25;;;;;19.21;45.67;99057.72;4964375;28;45310;-82
2021/11/28 05:32:44;;;;;;;;;5.00;4.50;;;;;19.23;44.86;99055.00;4947942;28;45354;-81
2021/11/28 05:35:10;;;;;;;;;6.75;5.75;;;;;19.23;45.81;99063.78;4964054;28;45421;-81
2021/11/28 05:37:35;;;;;;;;;6.75;6.25;;;;;19.24;45.51;99064.63;4963942;28;46056;-82
2021/11/28 05:40:01;;;;;;;;;5.00;5.00;;;;;19.18;45.07;99074.59;4947430;28;45533;-80
2021/11/28 05:42:27;;;;;;;;;9.00;6.75;;;;;19.20;45.19;99085.13;4964004;28;45281;-79
2021/11/28 05:44:52;;;;;;;;;6.75;6.75;;;;;19.20;46.03;99079.81;4947991;28;45567;-79
2021/11/28 05:47:18;;;;;;;;;5.00;5.00;;;;;19.17;45.67;99085.25;4947177;28;45238;-79
2021/11/28 05:49:43;;;;;;;;;6.00;5.75;;;;;19.17;45.84;99079.97;4947031;28;67774;-79
2021/11/28 05:52:08;;;;;;;;;6.25;6.25;;;;;19.15;45.31;99077.41;4947505;28;51377;-80
2021/11/28 05:54:34;;;;;;;;;7.50;5.25;;;;;19.16;45.60;99083.53;4979462;28;59073;-79
2021/11/28 05:56:59;;;;;;;;;3.00;3.00;;;;;19.18;45.38;99087.81;4947372;28;46766;-79
2021/11/28 05:59:27;;;;;;;;;5.00;4.00;;;;;19.13;46.07;99081.94;4964290;28;58916;-79
2021/11/28 06:01:52;;;;;;;;;4.75;4.75;;;;;19.16;45.49;99084.41;4964051;28;45428;-79
2021/11/28 06:04:17;;;;;;;;;4.00;4.00;;;;;19.19;45.65;99078.94;4947549;28;45832;-79
2021/11/28 06:06:43;;;;;;;;;3.75;2.75;;;;;19.15;45.88;99077.41;4947145;28;64761;-77
2021/11/28 06:09:08;;;;;;;;;4.25;4.25;;;;;19.16;45.33;99094.13;4963473;28;45401;-79
2021/11/28 06:11:34;;;;;;;;;4.00;3.75;;;;;19.22;45.44;99095.59;4946656;28;62676;-78
2021/11/28 06:13:59;;;;;;;;;6.25;5.75;;;;;19.22;45.41;99100.91;4947597;28;45354;-79
2021/11/28 06:16:24;;;;;;;;;6.25;6.00;;;;;19.23;45.56;99100.81;4963303;28;46001;-79
2021/11/28 06:18:50;;;;;;;;;4.00;4.00;;;;;19.26;45.75;99115.66;4947279;28;45260;-79
2021/11/28 06:21:15;;;;;;;;;3.25;3.25;;;;;19.27;45.07;99107.63;4947168;28;45335;-79
2021/11/28 06:23:41;;;;;;;;;4.25;3.00;;;;;19.29;45.26;99111.06;4947070;28;45505;-78
2021/11/28 06:26:06;;;;;;;;;6.00;6.00;;;;;19.31;46.63;99109.19;4963145;28;45339;-77
2021/11/28 06:28:32;;;;;;;;;6.50;5.25;;;;;19.40;46.88;99103.41;4963254;28;45258;-80
2021/11/28 06:30:57;;;;;;;;;8.00;6.25;;;;;19.53;47.45;99105.41;4967336;28;45480;-78
2021/11/28 06:33:23;;;;;;;;;8.00;7.00;;;;;19.64;47.93;99111.88;4962974;28;61853;-79
2021/11/28 06:35:48;;;;;;;;;5.00;5.00;;;;;19.79;48.61;99115.47;4962242;28;71593;-73
2021/11/28 06:38:14;;;;;;;;;6.00;6.00;;;;;19.99;48.38;99119.69;4978670;28;69418;-77
2021/11/28 06:40:39;;;;;;;;;4.75;4.75;;;;;20.18;48.84;99120.38;4962825;28;54674;-77
2021/11/28 06:43:04;;;;;;;;;8.00;5.75;;;;;20.38;48.63;99121.88;4979398;28;45472;-79
2021/11/28 06:45:30;;;;;;;;;7.00;5.50;;;;;20.53;48.71;99120.19;4963195;28;45298;-83
2021/11/28 06:47:55;;;;;;;;;7.00;7.00;;;;;20.69;48.42;99121.03;4963090;28;45280;-80
2021/11/28 06:50:23;;;;;;;;;9.00;6.25;;;;;20.85;48.33;99121.84;4963204;28;45533;-81
2021/11/28 06:52:49;;;;;;;;;6.00;4.25;;;;;20.96;47.77;99118.56;4946616;28;55886;-76
2021/11/28 06:55:14;;;;;;;;;5.75;5.75;;;;;21.05;48.19;99133.91;4962672;28;46089;-76
2021/11/28 06:57:40;;;;;;;;;6.00;4.25;;;;;21.10;48.39;99133.63;4962931;28;45453;-77
2021/11/28 07:00:06;;;;;;;;;8.50;6.25;;;;;21.15;48.44;99134.22;4964072;28;59481;-78
2021/11/28 07:02:31;;;;;;;;;5.25;5.25;;;;;21.13;48.04;99133.47;4966403;28;45347;-86
2021/11/28 07:04:58;;;;;;;;;5.00;5.00;;;;;21.17;48.21;99138.47;4950381;28;47563;-80
2021/11/28 07:07:24;;;;;;;;;7.25;5.25;;;;;21.21;48.28;99139.16;4966487;28;45407;-75
2021/11/28 07:09:50;;;;;;;;;5.75;5.00;;;;;21.25;48.03;99151.28;4950508;28;45362;-85
2021/11/28 07:12:15;;;;;;;;;7.75;5.25;;;;;21.22;47.94;99154.16;4949962;28;45448;-87
2021/11/28 07:14:41;;;;;;;;;6.25;5.25;;;;;21.24;47.66;99154.03;4949946;28;45312;-83
2021/11/28 07:17:06;;;;;;;;;5.25;5.00;;;;;21.24;48.00;99156.69;4950208;28;45554;-80
2021/11/28 07:19:33;;;;;;;;;6.25;6.00;;;;;21.21;48.10;99156.91;4967377;28;45459;-88
2021/11/28 07:21:58;;;;;;;;;8.25;7.25;;;;;21.20;47.72;99163.13;4953383;28;45432;-81
2021/11/28 07:24:23;;;;;;;;;7.50;5.75;;;;;21.18;47.91;99160.56;4984121;28;46309;-83
2021/11/28 07:26:49;;;;;;;;;9.25;5.00;;;;;21.16;47.26;99173.06;4951530;28;45311;-71
2021/11/28 07:29:14;;;;;;;;;4.50;4.25;;;;;21.21;47.01;99173.66;4966245;28;45421;-78
2021/11/28 07:31:40;;;;;;;;;4.00;4.00;;;;;21.16;47.31;99173.06;4966212;28;45553;-76
2021/11/28 07:34:05;;;;;;;;;6.50;6.00;;;;;21.19;46.84;99180.84;4950221;28;46671;-77
2021/11/28 07:36:31;;;;;;;;;6.75;4.25;;;;;21.18;46.99;99195.91;4966537;28;45394;-75
2021/11/28 07:38:56;;;;;;;;;7.25;5.75;;;;;21.18;46.89;99198.56;4983215;28;45156;-74
2021/11/28 07:41:21;;;;;;;;;7.00;5.00;;;;;21.14;46.74;99193.53;4983452;28;45460;-76
2021/11/28 07:43:47;;;;;;;;;4.00;3.50;;;;;21.16;46.31;99208.41;4965334;28;63377;-76
2021/11/28 07:46:13;;;;;;;;;4.50;3.50;;;;;21.16;46.39;99204.91;4953628;28;45232;-75
2021/11/28 07:48:39;;;;;;;;;5.25;4.00;;;;;21.17;46.42;99211.91;4952931;28;45279;-74
2021/11/28 07:51:04;;;;;;;;;6.00;5.00;;;;;21.17;46.56;99225.19;4975631;28;63845;-73
2021/11/28 07:53:29;;;;;;;;;7.50;5.00;;;;;21.16;46.72;99205.75;4976573;28;45306;-74
2021/11/28 07:55:55;;;;;;;;;3.00;3.00;;;;;21.16;46.60;99219.03;4969394;28;45444;-74
2021/11/28 07:58:23;;;;;;;;;6.75;5.75;;;;;21.16;46.51;99212.88;4952326;28;47063;-76
2021/11/28 08:00:56;;;;;;;;;5.00;4.00;;;;;21.13;46.70;99223.66;4935547;28;45499;-76
2021/11/28 08:03:21;;;;;;;;;4.00;4.00;;;;;21.15;46.64;99233.25;4964095;28;45701;-75
2021/11/28 08:05:52;;;;;;;;;8.50;4.75;;;;;21.13;46.81;99236.94;4954025;28;45446;-75
2021/11/28 08:08:17;;;;;;;;;4.00;1.00;;;;;21.13;46.74;99242.25;4950156;28;45279;-73
2021/11/28 08:10:43;;;;;;;;;5.25;4.75;;;;;21.08;46.99;99228.38;4964839;28;45576;-73
2021/11/28 08:13:08;;;;;;;;;5.00;5.00;;;;;21.14;47.03;99241.28;4984611;28;45429;-75
2021/11/28 08:15:37;;;;;;;;;4.25;4.25;;;;;21.13;46.65;99240.44;4964607;28;56872;-75
2021/11/28 08:18:02;;;;;;;;;6.75;5.25;;;;;21.13;46.80;99261.66;4982261;28;58933;-75
2021/11/28 08:20:28;;;;;;;;;4.75;3.50;;;;;21.13;46.95;99258.16;4965077;28;45495;-75
2021/11/28 08:22:54;;;;;;;;;5.00;5.00;;;;;21.13;47.17;99253.69;4981835;28;66222;-74
2021/11/28 08:25:19;;;;;;;;;6.00;5.25;;;;;21.12;46.86;99249.34;4965038;28;45369;-75
2021/11/28 08:27:45;;;;;;;;;6.00;4.00;;;;;21.14;46.92;99249.25;4981252;28;45318;-72
2021/11/28 08:30:13;;;;;;;;;3.00;3.00;;;;;21.13;47.43;99263.47;4982633;28;45420;-75
2021/11/28 08:32:39;;;;;;;;;6.00;4.50;;;;;21.14;47.08;99259.88;4982228;28;45312;-74
2021/11/28 08:35:07;;;;;;;;;5.75;4.00;;;;;21.14;46.93;99267.81;4964997;28;45922;-74
2021/11/28 08:37:32;;;;;;;;;5.00;5.00;;;;;21.14;47.02;99260.72;4948961;28;45355;-73
2021/11/28 08:40:02;;;;;;;;;4.50;4.50;;;;;21.15;47.02;99264.22;4964875;28;45521;-73
2021/11/28 08:42:32;;;;;;;;;6.00;4.25;;;;;21.14;47.10;99262.50;4948599;28;45537;-73
2021/11/28 08:44:57;;;;;;;;;6.50;6.00;;;;;21.13;46.95;99252.84;4965669;28;45442;-73
2021/11/28 08:47:23;;;;;;;;;3.50;3.50;;;;;21.13;46.81;99269.63;4965030;28;45400;-73
2021/11/28 08:49:48;;;;;;;;;6.50;5.75;;;;;21.12;46.85;99265.25;4964746;28;45456;-73
2021/11/28 08:52:14;;;;;;;;;5.75;5.50;;;;;21.14;46.81;99270.47;4948166;28;57184;-73
2021/11/28 08:54:41;;;;;;;;;7.75;4.75;;;;;21.14;46.89;99273.13;4982364;28;45869;-73
2021/11/28 08:57:07;;;;;;;;;4.00;4.00;;;;;21.14;46.61;99275.78;4981434;28;60484;-73
2021/11/28 08:59:35;;;;;;;;;8.00;4.25;;;;;21.13;47.18;99284.69;4981195;28;45263;-73
2021/11/28 09:02:00;;;;;;;;;6.50;5.25;;;;;21.11;46.99;99284.78;4981991;28;45235;-74
2021/11/28 09:04:26;;;;;;;;;7.00;4.75;;;;;21.11;47.05;99286.56;4949297;28;45462;-72
2021/11/28 09:06:51;;;;;;;;;5.00;5.00;;;;;21.10;47.20;99284.84;4950381;28;45365;-73
2021/11/28 09:09:17;;;;;;;;;6.25;5.00;;;;;21.09;47.06;99297.25;4965289;28;53379;-73
2021/11/28 09:11:42;;;;;;;;;4.50;3.00;;;;;21.08;46.86;99295.53;4948896;28;47615;-74
2021/11/28 09:14:08;;;;;;;;;8.25;5.00;;;;;21.06;46.87;99297.44;4964744;28;45338;-74
2021/11/28 09:16:33;;;;;;;;;5.00;4.00;;;;;21.09;46.67;99307.00;4948472;28;45393;-73
2021/11/28 09:19:04;;;;;;;;;5.75;5.75;;;;;21.07;46.60;99304.44;4964488;28;45400;-73
2021/11/28 09:21:30;;;;;;;;;7.50;5.25;;;;;21.08;47.09;99302.66;4964548;28;45456;-73
2021/11/28 09:26:45;;;;;;;;;8.00;5.00;;;;;21.07;46.80;99308.91;4981743;28;45538;-74
2021/11/28 09:29:13;;;;;;;;;6.00;6.00;;;;;21.07;46.92;99309.75;4983260;28;45413;-73
2021/11/28 09:31:39;;;;;;;;;7.25;6.50;;;;;21.06;46.88;99315.16;4964769;28;48083;-74
2021/11/28 09:34:19;;;;;;;;;4.75;4.25;;;;;21.07;47.10;99324.81;4932019;28;45289;-77
2021/11/28 09:36:47;;;;;;;;;5.75;5.00;;;;;21.06;46.70;99331.94;4933966;28;45467;-74
2021/11/28 09:39:13;;;;;;;;;8.00;5.25;;;;;21.05;46.76;99326.72;4981328;28;45239;-73
2021/11/28 09:41:38;;;;;;;;;4.00;4.00;;;;;21.04;46.67;99323.19;4963866;28;46150;-73
2021/11/28 09:44:08;;;;;;;;;5.25;5.25;;;;;21.04;46.79;99331.16;4948021;28;45509;-73
2021/11/28 09:46:36;;;;;;;;;8.00;6.00;;;;;21.04;46.39;99331.16;4964176;28;45377;-73
2021/11/28 09:49:03;;;;;;;;;5.00;4.50;;;;;21.05;46.55;99329.38;4963871;28;46635;-73
2021/11/28 09:51:29;;;;;;;;;6.50;5.00;;;;;21.02;46.75;99338.31;4964272;28;45327;-74
2021/11/28 09:53:59;;;;;;;;;7.75;5.75;;;;;21.03;46.58;99340.06;4947148;28;45219;-73
2021/11/28 09:56:27;;;;;;;;;6.25;4.00;;;;;21.01;46.47;99335.75;4947932;28;45361;-73
2021/11/28 09:59:03;;;;;;;;;;;;;;;;;;;;;
2021/11/28 10:01:33;;;;;;;;;4.50;4.00;;;;;21.03;46.46;99344.53;4946410;28;75053;-73
2021/11/28 10:04:01;;;;;;;;;5.50;4.00;;;;;20.98;46.54;99336.81;4964067;28;45335;-73
2021/11/28 10:06:30;;;;;;;;;4.00;3.25;;;;;21.01;46.68;99343.72;4963893;28;45262;-73
2021/11/28 10:08:56;;;;;;;;;5.50;5.00;;;;;21.03;46.60;99347.16;4946940;28;45260;-74
2021/11/28 10:11:25;;;;;;;;;6.75;5.25;;;;;21.00;46.35;99340.22;4947294;28;47280;-73
2021/11/28 10:13:52;;;;;;;;;5.50;5.25;;;;;21.02;46.52;99353.38;4976540;28;45432;-74
2021/11/28 10:16:18;;;;;;;;;7.25;7.00;;;;;21.03;46.87;99347.16;4928418;28;45587;-72
2021/11/28 10:18:43;;;;;;;;;6.00;4.50;;;;;21.04;47.16;99351.53;4964200;28;45266;-73
2021/11/28 10:21:09;;;;;;;;;6.50;3.75;;;;;21.06;47.37;99352.28;4964351;28;45372;-73
2021/11/28 10:24:12;;;;;;;;;8.00;5.50;;;;;21.07;48.07;99352.19;4947616;28;45412;-73
2021/11/28 10:27:04;;;;;;;;;8.25;7.25;;;;;21.08;48.49;99348.59;4980953;28;45557;-76
2021/11/28 10:29:36;;;;;;;;;3.75;3.00;;;;;21.12;49.21;99351.97;4964798;28;45382;-79
2021/11/28 10:32:03;;;;;;;;;5.25;5.00;;;;;21.15;48.95;99362.38;4962964;28;45807;-77
2021/11/28 10:34:38;;;;;;;;;7.00;5.25;;;;;21.17;49.31;99356.03;4980313;28;45409;-75
2021/11/28 10:37:20;;;;;;;;;6.50;6.50;;;;;21.17;48.58;99353.38;4963405;28;45357;-76
2021/11/28 10:40:06;;;;;;;;;6.75;6.00;;;;;21.20;48.60;99351.50;4946694;28;45603;-79
2021/11/28 10:42:34;;;;;;;;;8.50;5.75;;;;;21.22;48.39;99349.63;4963016;28;45845;-79
2021/11/28 10:45:35;;;;;;;;;;;;;;;;;;;;;
2021/11/28 10:48:14;;;;;;;;;8.00;4.50;;;;;21.20;48.55;99341.78;4965849;28;68343;-78
2021/11/28 10:50:47;;;;;;;;;6.00;5.00;;;;;21.26;48.38;99356.47;4949293;28;45639;-76
2021/11/28 10:53:19;;;;;;;;;5.25;4.00;;;;;21.23;48.24;99344.25;4963912;28;45528;-73
2021/11/28 10:56:02;;;;;;;;;7.25;4.25;;;;;21.28;48.08;99351.94;4962581;28;45441;-77
2021/11/28 10:58:31;;;;;;;;;7.00;6.25;;;;;21.29;48.34;99348.38;4963595;28;45370;-77
2021/11/28 11:00:56;;;;;;;;;6.75;5.75;;;;;21.31;48.50;99354.44;4963113;28;45623;-76
2021/11/28 11:03:38;;;;;;;;;7.75;5.00;;;;;21.31;48.55;99344.69;4980400;28;45464;-73
2021/11/28 11:06:25;;;;;;;;;7.75;5.25;;;;;21.33;47.68;99350.75;4962941;28;45259;-74
2021/11/28 11:09:23;;;;;;;;;8.00;5.50;;;;;21.34;47.72;99341.84;4962879;28;45259;-72
2021/11/28 11:12:18;;;;;;;;;6.75;5.75;;;;;21.32;47.48;99343.75;4966757;28;45515;-73
2021/11/28 11:14:44;;;;;;;;;8.75;5.00;;;;;21.33;47.64;99342.78;4960512;28;45630;-73
2021/11/28 11:17:11;;;;;;;;;4.75;4.75;;;;;21.31;47.68;99343.84;4946398;28;45437;-75
2021/11/28 11:19:39;;;;;;;;;5.25;5.25;;;;;21.31;47.18;99342.03;4962768;28;45417;-73
2021/11/28 11:22:25;;;;;;;;;7.25;6.00;;;;;21.32;47.44;99340.25;4953464;28;45334;-71
2021/11/28 11:24:58;;;;;;;;;7.25;6.25;;;;;21.32;47.13;99346.41;4978800;28;45392;-73
2021/11/28 11:27:34;;;;;;;;;6.75;5.75;;;;;21.32;46.67;99351.72;4981276;28;45234;-72
2021/11/28 11:30:38;;;;;;;;;6.25;6.00;;;;;21.32;46.94;99346.41;4962620;28;45190;-72
2021/11/28 11:33:05;;;;;;;;;7.50;7.50;;;;;21.31;46.89;99351.81;4921266;28;45255;-72
2021/11/28 11:35:40;;;;;;;;;6.75;6.75;;;;;21.33;47.13;99358.72;4962614;28;45546;-71
2021/11/28 11:38:14;;;;;;;;;9.50;6.00;;;;;21.33;46.95;99358.72;4962383;28;45276;-72
2021/11/28 11:40:39;;;;;;;;;6.00;5.25;;;;;21.34;47.57;99352.47;4980055;28;45275;-71
2021/11/28 11:43:05;;;;;;;;;7.75;7.00;;;;;21.35;47.05;99359.47;4978291;28;59630;-73